createdAt,value
2023-04-23T00:02:03.219Z,12.85
2023-04-23T00:04:37.990Z,13.50
2023-04-23T00:07:05.885Z,13.55
2023-04-23T00:09:33.506Z,13.35
2023-04-23T00:12:02.059Z,11.75
2023-04-23T00:14:29.400Z,11.80
2023-04-23T00:16:56.680Z,12.38
2023-04-23T00:19:23.483Z,14.55
2023-04-23T00:21:50.259Z,17.27
2023-04-23T00:24:17.088Z,19.08
2023-04-23T00:26:43.905Z,21.42
2023-04-23T00:29:11.074Z,23.95
2023-04-23T00:31:37.832Z,24.80
2023-04-23T00:34:04.578Z,24.88
2023-04-23T00:36:31.322Z,25.08
2023-04-23T00:38:58.020Z,23.95
2023-04-23T00:41:27.313Z,25.20
2023-04-23T00:43:58.393Z,24.40
2023-04-23T00:46:28.613Z,22.83
2023-04-23T00:48:55.708Z,22.10
2023-04-23T00:51:23.557Z,20.25
2023-04-23T00:53:51.010Z,22.65
2023-04-23T00:56:18.654Z,19.83
2023-04-23T00:58:46.114Z,17.63
2023-04-23T01:01:13.932Z,19.35
2023-04-23T01:03:44.401Z,19.67
2023-04-23T01:06:11.217Z,22.83
2023-04-23T01:08:41.008Z,23.52
2023-04-23T01:11:07.770Z,22.65
2023-04-23T01:13:35.226Z,25.65
2023-04-23T01:16:02.569Z,34.30
2023-04-23T01:18:30.065Z,35.35
2023-04-23T01:20:56.756Z,34.47
2023-04-23T01:23:23.707Z,35.60
2023-04-23T01:25:51.088Z,32.33
2023-04-23T01:28:22.072Z,26.73
2023-04-23T01:30:51.098Z,20.67
2023-04-23T01:33:19.404Z,20.35
2023-04-23T01:35:49.309Z,19.58
2023-04-23T01:38:23.494Z,19.33
2023-04-23T01:43:20.996Z,17.92
2023-04-23T01:45:47.863Z,20.30
2023-04-23T01:48:17.250Z,20.77
2023-04-23T01:50:44.309Z,20.30
2023-04-23T01:53:11.182Z,23.35
2023-04-23T01:55:47.594Z,23.58
2023-04-23T01:58:14.759Z,23.48
2023-04-23T02:00:42.003Z,21.75
2023-04-23T02:03:09.149Z,21.38
2023-04-23T02:05:37.008Z,22.15
2023-04-23T02:08:04.311Z,21.00
2023-04-23T02:10:31.775Z,21.30
2023-04-23T02:13:01.474Z,24.23
2023-04-23T02:15:28.924Z,23.90
2023-04-23T02:17:57.154Z,21.90
2023-04-23T02:20:23.983Z,25.83
2023-04-23T02:22:51.090Z,24.40
2023-04-23T02:25:23.056Z,23.42
2023-04-23T02:27:50.543Z,23.73
2023-04-23T02:30:19.249Z,23.83
2023-04-23T02:32:45.990Z,23.40
2023-04-23T02:35:12.727Z,25.08
2023-04-23T02:37:43.408Z,24.27
2023-04-23T02:40:11.284Z,24.58
2023-04-23T02:42:38.177Z,25.65
2023-04-23T02:45:05.907Z,24.63
2023-04-23T02:47:32.675Z,26.35
2023-04-23T02:49:59.391Z,24.50
2023-04-23T02:52:26.065Z,25.98
2023-04-23T02:54:53.016Z,26.13
2023-04-23T02:57:23.539Z,28.98
2023-04-23T02:59:53.136Z,28.67
2023-04-23T03:02:23.922Z,33.15
2023-04-23T03:04:51.379Z,33.80
2023-04-23T03:07:18.120Z,35.95
2023-04-23T03:09:44.847Z,37.00
2023-04-23T03:12:11.680Z,38.97
2023-04-23T03:14:38.424Z,39.38
2023-04-23T03:17:06.434Z,37.60
2023-04-23T03:19:36.166Z,35.22
2023-04-23T03:22:05.640Z,37.97
2023-04-23T03:24:35.359Z,38.28
2023-04-23T03:27:02.219Z,36.67
2023-04-23T03:29:29.105Z,38.85
2023-04-23T03:31:56.542Z,36.72
2023-04-23T03:34:23.235Z,38.10
2023-04-23T03:36:51.057Z,38.50
2023-04-23T03:39:17.928Z,37.13
2023-04-23T03:41:44.945Z,34.97
2023-04-23T03:44:11.645Z,37.38
2023-04-23T03:46:38.446Z,33.63
2023-04-23T03:49:05.358Z,31.50
2023-04-23T03:51:32.431Z,31.83
2023-04-23T03:53:59.161Z,29.83
2023-04-23T03:56:27.141Z,29.88
2023-04-23T03:58:56.814Z,29.77
2023-04-23T04:01:23.568Z,32.60
2023-04-23T04:03:50.328Z,31.27
2023-04-23T04:06:17.113Z,31.55
2023-04-23T04:08:46.225Z,31.50
2023-04-23T04:11:12.877Z,30.92
2023-04-23T04:13:41.947Z,31.58
2023-04-23T04:16:08.961Z,28.58
2023-04-23T04:18:35.861Z,28.80
2023-04-23T04:21:02.604Z,29.52
2023-04-23T04:23:32.286Z,28.17
2023-04-23T04:25:59.889Z,28.00
2023-04-23T04:28:26.677Z,25.98
2023-04-23T04:30:54.967Z,24.10
2023-04-23T04:33:21.750Z,22.48
2023-04-23T04:35:51.008Z,20.45
2023-04-23T04:38:18.324Z,17.25
2023-04-23T04:40:45.752Z,15.55
2023-04-23T04:43:12.388Z,15.75
2023-04-23T04:45:39.081Z,15.85
2023-04-23T04:48:06.043Z,12.80
2023-04-23T04:50:32.753Z,14.60
2023-04-23T04:52:59.688Z,15.43
2023-04-23T04:55:27.119Z,14.95
2023-04-23T04:57:56.915Z,17.30
2023-04-23T05:00:29.972Z,15.20
2023-04-23T05:03:01.057Z,14.85
2023-04-23T05:05:28.496Z,13.32
2023-04-23T05:08:01.111Z,12.80
2023-04-23T05:10:29.506Z,13.13
2023-04-23T05:13:00.607Z,12.10
2023-04-23T05:15:27.705Z,12.48
2023-04-23T05:17:57.347Z,11.27
2023-04-23T05:20:27.329Z,9.32
2023-04-23T05:22:59.413Z,10.65
2023-04-23T05:25:26.134Z,9.15
2023-04-23T05:27:53.386Z,9.43
2023-04-23T05:30:20.227Z,9.27
2023-04-23T05:32:47.184Z,10.38
2023-04-23T05:35:13.894Z,9.73
2023-04-23T05:37:41.558Z,9.27
2023-04-23T05:48:13.996Z,9.38
2023-04-23T05:53:22.813Z,9.05
2023-04-23T05:55:49.667Z,8.73
2023-04-23T06:00:59.842Z,8.02
2023-04-23T06:03:30.367Z,6.97
2023-04-23T06:05:57.936Z,8.27
2023-04-23T06:08:25.428Z,7.95
2023-04-23T06:29:43.921Z,7.18
2023-04-23T06:32:10.860Z,8.18
2023-04-23T06:34:43.979Z,7.32
2023-04-23T06:37:19.102Z,7.90
2023-04-23T06:39:46.075Z,8.27
2023-04-23T06:47:42.450Z,6.30
2023-04-23T06:50:09.485Z,6.22
2023-04-23T06:52:36.457Z,6.38
2023-04-23T06:55:03.975Z,6.45
2023-04-23T06:57:30.687Z,6.82
2023-04-23T06:59:57.447Z,7.13
2023-04-23T07:02:24.356Z,6.85
2023-04-23T07:04:51.335Z,7.90
2023-04-23T07:07:18.271Z,6.90
2023-04-23T07:09:44.945Z,6.90
2023-04-23T07:12:11.796Z,7.88
2023-04-23T07:14:38.638Z,7.07
2023-04-23T07:17:05.675Z,7.38
2023-04-23T07:19:32.448Z,7.47
2023-04-23T07:21:59.185Z,7.63
2023-04-23T07:24:26.919Z,6.93
2023-04-23T07:26:56.567Z,7.55
2023-04-23T07:29:23.352Z,6.93
2023-04-23T07:31:51.313Z,6.63
2023-04-23T07:34:17.989Z,6.70
2023-04-23T07:36:44.811Z,7.43
2023-04-23T07:39:11.542Z,7.68
2023-04-23T07:41:38.578Z,7.57
2023-04-23T07:44:05.638Z,6.97
2023-04-23T07:54:35.536Z,7.13
2023-04-23T07:57:03.005Z,6.75
2023-04-23T07:59:30.443Z,6.97
2023-04-23T08:01:57.292Z,7.30
2023-04-23T08:23:20.310Z,6.78
2023-04-23T08:25:47.169Z,7.28
2023-04-23T08:28:13.799Z,7.43
2023-04-23T08:30:49.473Z,7.75
2023-04-23T08:33:19.454Z,7.32
2023-04-23T08:35:47.005Z,8.07
2023-04-23T08:38:13.741Z,7.95
2023-04-23T08:40:42.855Z,8.07
2023-04-23T08:43:19.765Z,7.70
2023-04-23T08:45:49.432Z,8.30
2023-04-23T08:48:16.769Z,7.70
2023-04-23T08:50:48.241Z,7.68
2023-04-23T08:53:25.554Z,7.15
2023-04-23T08:55:57.348Z,7.15
2023-04-23T08:58:26.040Z,8.02
2023-04-23T09:00:58.049Z,7.88
2023-04-23T09:03:31.712Z,7.53
2023-04-23T09:05:59.041Z,7.55
2023-04-23T09:08:26.308Z,7.88
2023-04-23T09:11:00.880Z,7.32
2023-04-23T09:13:33.627Z,8.18
2023-04-23T09:16:00.345Z,7.65
2023-04-23T09:18:27.064Z,7.13
2023-04-23T09:20:57.412Z,7.32
2023-04-23T09:23:24.044Z,7.35
2023-04-23T09:25:50.793Z,7.93
2023-04-23T09:28:17.885Z,7.35
2023-04-23T09:30:46.225Z,7.72
2023-04-23T09:33:16.361Z,6.95
2023-04-23T09:35:43.589Z,7.57
2023-04-23T09:38:10.698Z,7.95
2023-04-23T09:40:38.693Z,7.90
2023-04-23T09:43:10.124Z,7.80
2023-04-23T09:45:36.941Z,7.53
2023-04-23T09:48:04.522Z,7.78
2023-04-23T09:50:37.060Z,8.25
2023-04-23T09:53:06.256Z,8.38
2023-04-23T09:55:41.757Z,8.85
2023-04-23T09:58:17.045Z,8.82
2023-04-23T10:00:43.822Z,9.07
2023-04-23T10:03:11.947Z,8.98
2023-04-23T10:05:59.691Z,8.18
2023-04-23T10:08:28.916Z,9.23
2023-04-23T10:11:13.762Z,9.13
2023-04-23T10:13:45.603Z,8.43
2023-04-23T10:16:22.188Z,8.35
2023-04-23T10:18:53.782Z,8.07
2023-04-23T10:21:36.640Z,8.10
2023-04-23T10:24:14.859Z,8.05
2023-04-23T10:26:51.824Z,7.40
2023-04-23T10:29:26.990Z,8.10
2023-04-23T10:32:00.796Z,8.98
2023-04-23T10:34:30.846Z,8.95
2023-04-23T10:37:02.933Z,7.80
2023-04-23T10:39:42.963Z,7.55
2023-04-23T10:42:13.507Z,7.28
2023-04-23T10:47:17.168Z,8.15
2023-04-23T10:49:48.654Z,9.23
2023-04-23T10:52:22.219Z,8.45
2023-04-23T10:55:00.018Z,7.72
2023-04-23T10:57:27.038Z,8.80
2023-04-23T10:59:58.764Z,8.98
2023-04-23T11:02:26.564Z,10.48
2023-04-23T11:04:59.102Z,7.93
2023-04-23T11:07:41.294Z,8.43
2023-04-23T11:10:18.162Z,8.68
2023-04-23T11:12:45.009Z,9.32
2023-04-23T11:15:16.631Z,9.45
2023-04-23T11:17:49.125Z,9.00
2023-04-23T11:20:22.408Z,7.65
2023-04-23T11:22:56.524Z,7.83
2023-04-23T11:25:28.685Z,7.47
2023-04-23T11:28:03.260Z,7.47
2023-04-23T11:30:30.964Z,7.47
2023-04-23T11:33:01.365Z,7.70
2023-04-23T11:35:29.445Z,8.15
2023-04-23T11:37:56.989Z,7.43
2023-04-23T11:40:24.716Z,7.70
2023-04-23T11:42:57.498Z,7.78
2023-04-23T11:45:28.079Z,8.43
2023-04-23T11:47:58.365Z,6.70
2023-04-23T11:50:33.359Z,8.48
2023-04-23T11:53:11.306Z,9.05
2023-04-23T11:55:38.842Z,7.20
2023-04-23T11:58:05.775Z,7.18
2023-04-23T12:00:32.459Z,7.95
2023-04-23T12:03:06.448Z,7.43
2023-04-23T12:08:21.076Z,6.93
2023-04-23T12:11:06.187Z,8.65
2023-04-23T12:13:34.184Z,8.35
2023-04-23T12:16:09.154Z,6.63
2023-04-23T12:18:44.258Z,8.05
2023-04-23T12:21:13.664Z,8.45
2023-04-23T12:23:47.268Z,7.22
2023-04-23T12:26:16.758Z,7.25
2023-04-23T12:29:01.755Z,7.40
2023-04-23T12:31:30.232Z,8.10
2023-04-23T12:34:10.004Z,8.32
2023-04-23T12:36:50.041Z,8.10
2023-04-23T12:39:34.368Z,8.55
2023-04-23T12:44:43.171Z,8.60
2023-04-23T12:47:11.625Z,6.80
2023-04-23T12:49:43.215Z,7.30
2023-04-23T12:52:12.890Z,6.82
2023-04-23T12:54:47.695Z,8.38
2023-04-23T12:59:42.216Z,7.45
2023-04-23T13:02:09.900Z,8.15
2023-04-23T13:04:43.285Z,7.78
2023-04-23T13:07:11.389Z,7.85
2023-04-23T13:09:44.544Z,8.07
2023-04-23T13:12:11.817Z,7.28
2023-04-23T13:17:26.705Z,8.23
2023-04-23T13:25:28.179Z,8.35
2023-04-23T13:27:56.067Z,9.25
2023-04-23T13:30:24.892Z,9.93
2023-04-23T13:32:51.796Z,6.82
2023-04-23T13:35:18.724Z,7.93
2023-04-23T13:37:50.050Z,9.00
2023-04-23T13:40:19.423Z,7.82
2023-04-23T13:42:48.080Z,8.13
2023-04-23T13:45:16.386Z,9.30
2023-04-23T13:47:44.514Z,8.00
2023-04-23T13:50:12.237Z,7.32
2023-04-23T13:52:41.940Z,6.78
2023-04-23T13:55:10.044Z,7.13
2023-04-23T13:57:41.184Z,6.75
2023-04-23T14:00:09.114Z,7.82
2023-04-23T14:02:36.128Z,6.95
2023-04-23T14:05:04.932Z,7.80
2023-04-23T14:07:32.511Z,6.88
2023-04-23T14:09:59.188Z,7.22
2023-04-23T14:12:29.502Z,6.70
2023-04-23T14:14:56.762Z,6.55
2023-04-23T14:17:23.525Z,6.70
2023-04-23T14:19:50.454Z,7.32
2023-04-23T14:22:17.165Z,8.18
2023-04-23T14:24:51.409Z,6.40
2023-04-23T14:27:18.120Z,7.15
2023-04-23T14:30:06.050Z,6.95
2023-04-23T14:32:35.924Z,6.53
2023-04-23T14:35:03.557Z,6.63
2023-04-23T14:37:30.273Z,7.72
2023-04-23T14:39:56.877Z,7.20
2023-04-23T14:42:26.743Z,7.72
2023-04-23T14:45:00.228Z,9.10
2023-04-23T14:47:27.058Z,7.43
2023-04-23T14:49:54.415Z,7.53
2023-04-23T14:52:21.142Z,7.10
2023-04-23T14:54:47.925Z,8.15
2023-04-23T14:57:14.662Z,6.47
2023-04-23T14:59:56.922Z,7.55
2023-04-23T15:02:23.808Z,7.57
2023-04-23T15:04:50.869Z,7.03
2023-04-23T15:07:17.580Z,7.40
2023-04-23T15:09:44.372Z,7.28
2023-04-23T15:13:01.345Z,8.50
2023-04-23T15:16:02.460Z,7.65
2023-04-23T15:18:29.411Z,7.97
2023-04-23T15:20:58.845Z,6.50
2023-04-23T15:23:25.496Z,7.50
2023-04-23T15:25:54.871Z,8.70
2023-04-23T15:28:25.150Z,8.40
2023-04-23T15:30:53.181Z,7.40
2023-04-23T15:33:21.694Z,7.35
2023-04-23T15:35:50.965Z,5.95
2023-04-23T15:38:19.840Z,6.30
2023-04-23T15:40:46.875Z,7.18
2023-04-23T15:43:13.854Z,7.60
2023-04-23T15:45:48.508Z,7.32
2023-04-23T15:48:16.562Z,7.80
2023-04-23T15:50:46.632Z,7.85
2023-04-23T15:53:14.126Z,6.50
2023-04-23T15:55:46.614Z,6.13
2023-04-23T15:58:13.204Z,8.68
2023-04-23T16:00:40.979Z,7.07
2023-04-23T16:03:07.906Z,6.68
2023-04-23T16:05:36.718Z,7.43
2023-04-23T16:08:03.896Z,7.38
2023-04-23T16:10:33.852Z,6.80
2023-04-23T16:13:02.138Z,9.57
2023-04-23T16:15:28.930Z,6.60
2023-04-23T16:18:00.040Z,7.93
2023-04-23T16:20:28.674Z,6.78
2023-04-23T16:22:56.368Z,6.65
2023-04-23T16:25:24.339Z,8.45
2023-04-23T16:27:55.398Z,6.78
2023-04-23T16:30:22.054Z,8.95
2023-04-23T16:32:48.855Z,7.47
2023-04-23T16:35:15.954Z,10.20
2023-04-23T16:37:42.622Z,14.05
2023-04-23T16:40:10.292Z,10.40
2023-04-23T16:42:37.017Z,7.32
2023-04-23T16:45:05.134Z,7.78
2023-04-23T16:47:31.768Z,7.05
2023-04-23T16:49:58.668Z,7.40
2023-04-23T16:52:25.438Z,7.55
2023-04-23T16:54:52.115Z,7.80
2023-04-23T16:57:18.968Z,8.00
2023-04-23T16:59:48.845Z,8.25
2023-04-23T17:02:15.712Z,8.23
2023-04-23T17:04:42.712Z,7.20
2023-04-23T17:07:09.798Z,8.13
2023-04-23T17:09:36.487Z,7.97
2023-04-23T17:12:03.177Z,7.10
2023-04-23T17:14:29.874Z,7.30
2023-04-23T17:16:56.775Z,6.60
2023-04-23T17:19:23.482Z,7.30
2023-04-23T17:21:50.362Z,7.63
2023-04-23T17:24:20.223Z,8.23
2023-04-23T17:26:50.456Z,10.15
2023-04-23T17:29:17.359Z,8.45
2023-04-23T17:31:47.385Z,8.82
2023-04-23T17:34:14.193Z,9.13
2023-04-23T17:36:44.196Z,10.02
2023-04-23T17:39:11.108Z,9.52
2023-04-23T17:41:38.361Z,8.23
2023-04-23T17:44:05.237Z,8.82
2023-04-23T17:46:31.931Z,8.90
2023-04-23T17:49:01.050Z,9.07
2023-04-23T17:51:34.171Z,10.35
2023-04-23T17:54:02.222Z,9.50
2023-04-23T17:56:29.205Z,9.35
2023-04-23T17:58:59.003Z,9.57
2023-04-23T18:01:26.814Z,9.10
2023-04-23T18:03:59.204Z,9.35
2023-04-23T18:06:27.046Z,9.55
2023-04-23T18:08:56.302Z,10.15
2023-04-23T18:11:23.084Z,10.43
2023-04-23T18:13:53.935Z,11.15
2023-04-23T18:16:21.027Z,10.00
2023-04-23T18:18:50.887Z,10.30
2023-04-23T18:21:22.601Z,10.70
2023-04-23T18:23:56.610Z,10.80
2023-04-23T18:26:23.963Z,10.70
2023-04-23T18:28:50.685Z,9.70
2023-04-23T18:31:17.528Z,9.98
2023-04-23T18:34:02.125Z,10.63
2023-04-23T18:39:07.304Z,9.68
2023-04-23T18:41:34.686Z,9.88
2023-04-23T18:44:02.443Z,10.30
2023-04-23T18:46:33.440Z,10.32
2023-04-23T18:49:54.962Z,10.52
2023-04-23T18:52:21.998Z,9.85
2023-04-23T18:54:59.956Z,10.13
2023-04-23T18:57:26.752Z,10.15
2023-04-23T18:59:56.488Z,9.23
2023-04-23T19:02:34.376Z,9.30
2023-04-23T19:05:03.999Z,8.82
2023-04-23T19:07:30.742Z,9.70
2023-04-23T19:09:57.450Z,9.32
2023-04-23T19:12:24.069Z,9.50
2023-04-23T19:14:50.764Z,9.55
2023-04-23T19:17:18.806Z,9.73
2023-04-23T19:19:46.311Z,9.52
2023-04-23T19:22:17.499Z,9.73
2023-04-23T19:24:46.566Z,10.63
2023-04-23T19:27:15.763Z,10.15
2023-04-23T19:29:42.492Z,8.65
2023-04-23T19:32:09.412Z,11.13
2023-04-23T19:34:36.071Z,9.40
2023-04-23T19:37:02.726Z,9.23
2023-04-23T19:39:32.535Z,10.68
2023-04-23T19:41:59.509Z,9.20
2023-04-23T19:47:07.634Z,9.23
2023-04-23T19:49:34.477Z,9.10
2023-04-23T19:52:04.408Z,8.30
2023-04-23T19:59:54.745Z,8.63
2023-04-23T20:02:21.626Z,7.78
2023-04-23T20:04:48.458Z,8.98
2023-04-23T20:07:15.443Z,8.48
2023-04-23T20:09:42.219Z,7.60
2023-04-23T20:12:09.212Z,8.00
2023-04-23T20:20:02.785Z,9.00
2023-04-23T20:22:31.291Z,10.18
2023-04-23T20:25:03.775Z,12.98
2023-04-23T20:27:30.993Z,13.10
2023-04-23T20:29:57.729Z,19.42
2023-04-23T20:32:24.495Z,13.98
2023-04-23T20:34:56.682Z,9.18
2023-04-23T20:37:26.664Z,8.27
2023-04-23T20:39:58.422Z,8.13
2023-04-23T20:42:25.738Z,7.70
2023-04-23T20:45:01.852Z,8.55
2023-04-23T20:47:28.629Z,9.05
2023-04-23T20:49:55.621Z,8.13
2023-04-23T20:52:22.756Z,7.32
2023-04-23T21:05:41.437Z,7.33
2023-04-23T21:08:09.133Z,7.43
2023-04-23T21:10:39.150Z,7.30
2023-04-23T21:13:13.315Z,7.40
2023-04-23T21:31:48.172Z,6.18
2023-04-23T21:34:19.732Z,6.03
2023-04-23T21:36:46.693Z,6.63
2023-04-23T21:39:13.633Z,6.60
2023-04-23T21:41:45.174Z,6.97
2023-04-23T21:49:33.337Z,8.75
2023-04-23T21:52:03.660Z,8.07
2023-04-23T21:54:30.535Z,7.28
2023-04-23T21:56:59.097Z,8.60
2023-04-23T21:59:26.041Z,9.55
2023-04-23T22:01:59.850Z,9.43
2023-04-23T22:04:34.529Z,9.48
2023-04-23T22:07:05.456Z,9.32
2023-04-23T22:09:32.146Z,9.13
2023-04-23T22:12:02.460Z,8.52
2023-04-23T22:14:29.689Z,9.25
2023-04-23T22:16:58.681Z,8.75
2023-04-23T22:19:26.121Z,9.65
2023-04-23T22:21:56.309Z,8.75
2023-04-23T22:24:24.160Z,8.35
2023-04-23T22:27:00.139Z,9.35
2023-04-23T22:29:26.864Z,8.52
2023-04-23T22:31:58.933Z,8.63
2023-04-23T22:34:25.648Z,8.30
2023-04-23T22:39:33.264Z,9.45
2023-04-23T22:41:59.910Z,9.55
2023-04-23T22:44:26.649Z,9.30
2023-04-23T22:46:59.429Z,9.82
2023-04-23T22:49:26.153Z,8.98
2023-04-23T22:51:56.243Z,8.82
2023-04-23T22:54:23.035Z,8.38
2023-04-23T22:56:50.001Z,8.02
2023-04-23T22:59:16.701Z,8.20
2023-04-23T23:01:43.371Z,8.32
2023-04-23T23:04:13.024Z,8.07
2023-04-23T23:06:43.843Z,8.40
2023-04-23T23:09:10.776Z,7.63
2023-04-23T23:11:37.714Z,7.38
2023-04-23T23:14:04.965Z,7.13
2023-04-23T23:16:31.911Z,6.50
2023-04-23T23:18:59.514Z,7.35
2023-04-23T23:21:26.813Z,7.38
2023-04-23T23:24:01.814Z,7.22
2023-04-23T23:26:28.884Z,6.80
2023-04-23T23:28:57.947Z,7.35
2023-04-23T23:31:26.022Z,8.00
2023-04-23T23:34:02.141Z,6.75
2023-04-23T23:36:29.706Z,6.78
2023-04-23T23:39:01.113Z,7.00
2023-04-23T23:41:29.028Z,7.28
2023-04-23T23:43:57.796Z,6.40
2023-04-23T23:46:27.143Z,7.75
2023-04-23T23:48:59.620Z,6.32
2023-04-23T23:51:28.222Z,7.32
2023-04-23T23:53:55.378Z,6.72
2023-04-23T23:56:22.193Z,5.95
2023-04-23T23:58:48.831Z,6.15
